Time;durP1;ratioP1;P1;durP2;ratioP2;P2;SDS_P1;SDS_P2;PMS_P1;PMS_P2;Temp;Humidity;BMP_temperature;BMP_pressure;BME280_temperature;BME280_humidity;BME280_pressure;Samples;Min_cycle;Max_cycle;Signal;HPM_P1;HPM_P2
2023/01/14 00:01:09;;;;;;;;;1.00;1.00;;;;;8.48;68.14;101309.88;5044311;28;10359;-67
2023/01/14 00:03:36;;;;;;;;;5.25;2.00;;;;;8.51;68.37;101306.84;5048551;28;10429;-66
2023/01/14 00:06:03;;;;;;;;;1.00;1.00;;;;;8.47;67.59;101318.94;5048025;28;10228;-65
2023/01/14 00:08:30;;;;;;;;;3.25;1.50;;;;;8.52;68.05;101313.88;5049227;28;10311;-64
2023/01/14 00:11:01;;;;;;;;;1.00;0.75;;;;;8.60;68.43;101321.09;5045074;28;10236;-65
2023/01/14 00:13:28;;;;;;;;;1.00;1.00;;;;;8.58;68.21;101315.88;5047208;28;10267;-65
2023/01/14 00:15:57;;;;;;;;;1.75;0.00;;;;;8.54;67.89;101321.75;5044688;28;10386;-65
2023/01/14 00:18:24;;;;;;;;;1.25;0.25;;;;;8.58;68.20;101317.72;5048526;28;10282;-64
2023/01/14 00:20:57;;;;;;;;;1.00;0.00;;;;;8.55;68.18;101326.97;5047907;28;10261;-65
2023/01/14 00:23:23;;;;;;;;;2.50;1.75;;;;;8.47;68.07;101321.63;5047514;28;10297;-64
2023/01/14 00:25:50;;;;;;;;;6.75;0.75;;;;;8.44;68.50;101321.94;5046101;28;10347;-64
2023/01/14 00:28:16;;;;;;;;;0.00;0.00;;;;;8.46;68.19;101327.13;5045499;28;10133;-64
2023/01/14 00:30:44;;;;;;;;;1.00;1.00;;;;;8.45;68.58;101320.09;5047847;28;11081;-64
2023/01/14 00:33:10;;;;;;;;;1.00;1.00;;;;;8.37;68.43;101316.41;5048125;28;10304;-65
2023/01/14 00:35:38;;;;;;;;;2.25;2.25;;;;;8.38;68.23;101327.97;5047344;28;10204;-65
2023/01/14 00:38:04;;;;;;;;;2.00;0.75;;;;;8.38;68.54;101327.97;5055637;28;11041;-65
2023/01/14 00:40:31;;;;;;;;;4.00;1.00;;;;;8.33;67.94;101319.56;5046473;28;10504;-65
2023/01/14 00:42:57;;;;;;;;;1.00;1.00;;;;;8.37;68.59;101318.25;5046004;28;10312;-65
2023/01/14 00:45:23;;;;;;;;;3.50;2.00;;;;;8.35;68.51;101310.34;5048487;28;10338;-66
2023/01/14 00:47:52;;;;;;;;;4.00;1.00;;;;;8.31;68.22;101319.75;5045766;28;10423;-65
2023/01/14 00:50:19;;;;;;;;;1.00;0.00;;;;;8.36;68.69;101316.56;5043169;28;10566;-66
2023/01/14 00:52:46;;;;;;;;;1.00;1.00;;;;;8.34;68.82;101314.03;5045957;28;10289;-65
2023/01/14 00:55:13;;;;;;;;;1.00;0.75;;;;;8.34;68.27;101323.91;5045935;28;10440;-65
2023/01/14 00:57:39;;;;;;;;;1.00;1.00;;;;;8.36;68.49;101319.22;5052276;28;10590;-64
2023/01/14 01:00:07;;;;;;;;;1.00;1.00;;;;;8.31;68.54;101311.69;5046350;28;10398;-64
2023/01/14 01:02:33;;;;;;;;;2.00;1.00;;;;;8.33;68.69;101324.94;5045664;28;10280;-63
2023/01/14 01:04:59;;;;;;;;;5.00;1.25;;;;;8.32;68.89;101312.53;5046437;28;10358;-65
2023/01/14 01:07:26;;;;;;;;;2.00;1.75;;;;;8.17;69.05;101315.03;5042605;28;10341;-67
2023/01/14 01:09:52;;;;;;;;;2.25;2.25;;;;;8.17;69.04;101312.34;5059034;28;10391;-65
2023/01/14 01:12:20;;;;;;;;;0.75;0.75;;;;;8.23;69.05;101308.19;5051833;28;10526;-65
2023/01/14 01:14:47;;;;;;;;;1.00;1.00;;;;;8.22;68.68;101301.13;5060226;28;10538;-65
2023/01/14 01:17:14;;;;;;;;;1.50;1.50;;;;;8.19;69.16;101302.31;5048756;28;10474;-65
2023/01/14 01:19:40;;;;;;;;;2.50;2.00;;;;;8.23;69.16;101298.28;5049401;28;10573;-65
2023/01/14 01:22:08;;;;;;;;;1.75;1.50;;;;;8.21;69.14;101299.44;5046906;28;11308;-67
2023/01/14 01:24:34;;;;;;;;;1.25;1.00;;;;;8.22;69.62;101295.75;5048866;28;10434;-66
2023/01/14 01:27:01;;;;;;;;;1.25;0.00;;;;;8.23;69.48;101294.78;5049514;28;10388;-64
2023/01/14 01:29:27;;;;;;;;;0.50;0.50;;;;;8.20;69.09;101298.63;5050300;28;10411;-62
2023/01/14 01:31:54;;;;;;;;;0.25;0.25;;;;;8.20;69.59;101297.78;5049845;28;10365;-64
2023/01/14 01:34:20;;;;;;;;;1.50;1.50;;;;;8.22;69.62;101293.91;5050700;28;10307;-64
2023/01/14 01:36:47;;;;;;;;;0.00;0.00;;;;;8.24;69.73;101294.59;5048290;28;10444;-66
2023/01/14 01:39:13;;;;;;;;;2.00;1.00;;;;;8.24;69.59;101299.13;5051960;28;11205;-65
2023/01/14 01:41:41;;;;;;;;;2.00;1.00;;;;;8.22;69.42;101307.31;5050236;28;11136;-65
2023/01/14 01:44:28;;;;;;;;;4.50;1.00;;;;;8.20;69.70;101314.72;5050053;28;10496;-65
2023/01/14 01:46:54;;;;;;;;;2.00;0.00;;;;;8.18;69.91;101314.00;5047254;28;10304;-65
2023/01/14 01:49:34;;;;;;;;;4.00;1.25;;;;;8.17;69.78;101315.03;5049542;28;10370;-65
2023/01/14 01:52:00;;;;;;;;;1.00;1.00;;;;;8.18;70.44;101312.19;5066068;28;10372;-65
2023/01/14 01:54:32;;;;;;;;;0.00;0.00;;;;;8.18;70.58;101305.97;5050271;28;10355;-65
2023/01/14 01:57:00;;;;;;;;;0.00;0.00;;;;;8.16;70.17;101302.63;5044668;28;10525;-64
2023/01/14 01:59:31;;;;;;;;;1.00;1.00;;;;;8.15;70.59;101296.44;5047547;28;10388;-67
2023/01/14 02:01:58;;;;;;;;;1.00;0.00;;;;;8.15;70.59;101293.75;5048323;28;10306;-66
2023/01/14 02:04:24;;;;;;;;;1.50;1.50;;;;;8.13;70.69;101297.59;5043054;28;10552;-64
2023/01/14 02:06:51;;;;;;;;;0.50;0.00;;;;;8.12;70.90;101287.88;5051503;28;10421;-65
2023/01/14 02:09:18;;;;;;;;;1.00;1.00;;;;;8.07;70.66;101282.19;5049847;28;10504;-65
2023/01/14 02:11:53;;;;;;;;;2.25;1.25;;;;;8.05;71.18;101289.56;5046759;28;10370;-67
2023/01/14 02:14:23;;;;;;;;;2.00;0.25;;;;;8.01;71.49;101280.16;5046081;28;10530;-67
2023/01/14 02:17:14;;;;;;;;;0.75;0.75;;;;;7.99;71.72;101272.31;5048576;28;10579;-65
2023/01/14 02:19:55;;;;;;;;;0.25;0.25;;;;;7.98;71.76;101259.03;5044278;28;11092;-65
2023/01/14 02:22:33;;;;;;;;;1.75;1.75;;;;;7.97;71.54;101254.69;5046280;28;10455;-64
2023/01/14 02:25:21;;;;;;;;;1.00;1.00;;;;;7.94;72.27;101239.81;5039671;28;10592;-65
2023/01/14 02:27:54;;;;;;;;;1.00;1.00;;;;;7.90;72.53;101225.91;5029726;28;10423;-65
2023/01/14 02:30:32;;;;;;;;;1.00;1.00;;;;;7.88;72.33;101235.09;5047671;28;10448;-63
2023/01/14 02:33:39;;;;;;;;;2.00;1.25;;;;;7.80;72.45;101227.88;5047368;28;10433;-65
2023/01/14 02:36:50;;;;;;;;;4.00;1.75;;;;;7.80;73.27;101227.06;5048221;28;10497;-65
2023/01/14 02:39:41;;;;;;;;;1.75;1.75;;;;;7.82;72.78;101225.03;5028860;28;10623;-66
2023/01/14 02:45:33;;;;;;;;;1.00;1.00;;;;;7.76;72.81;101231.91;5043647;28;10694;-67
2023/01/14 02:48:03;;;;;;;;;1.00;1.00;;;;;7.68;73.49;101227.38;5065181;28;10432;-65
2023/01/14 02:50:35;;;;;;;;;2.00;2.00;;;;;7.59;73.19;101228.38;5043971;28;10525;-65
2023/01/14 02:53:10;;;;;;;;;5.75;1.00;;;;;7.63;73.81;101220.84;5048866;28;10665;-65
2023/01/14 02:55:38;;;;;;;;;1.75;1.75;;;;;7.60;73.38;101231.88;5059616;28;10581;-66
2023/01/14 02:58:25;;;;;;;;;4.25;1.25;;;;;7.54;73.17;101220.00;5046020;28;10709;-65
2023/01/14 03:01:05;;;;;;;;;5.25;1.25;;;;;7.52;74.03;101205.09;5022125;28;10563;-65
2023/01/14 03:04:06;;;;;;;;;1.25;1.25;;;;;7.55;73.84;101216.31;5048324;28;10589;-64
2023/01/14 03:06:51;;;;;;;;;1.00;1.00;;;;;7.55;73.81;101220.84;5030705;28;10574;-65
2023/01/14 03:09:47;;;;;;;;;1.25;1.00;;;;;7.54;73.61;101217.31;5047868;28;10668;-65
2023/01/14 03:12:35;;;;;;;;;1.50;1.00;;;;;7.48;73.40;101209.09;5050123;28;10714;-66
2023/01/14 03:15:09;;;;;;;;;1.25;1.25;;;;;7.37;73.62;101203.06;5042223;28;10742;-66
2023/01/14 03:17:56;;;;;;;;;1.50;1.50;;;;;7.40;74.45;101191.16;5042780;28;10661;-65
2023/01/14 03:20:29;;;;;;;;;1.00;1.00;;;;;7.33;75.29;101190.16;5041452;28;10611;-66
2023/01/14 03:23:00;;;;;;;;;0.75;0.75;;;;;7.33;74.75;101188.34;5059198;28;11252;-64
2023/01/14 03:25:30;;;;;;;;;4.25;3.25;;;;;7.30;75.10;101177.94;5048076;28;10696;-65
2023/01/14 03:28:03;;;;;;;;;2.00;2.00;;;;;7.24;75.67;101173.22;5041550;28;10757;-65
2023/01/14 03:30:36;;;;;;;;;4.00;2.50;;;;;7.19;75.54;101178.25;5047414;28;10717;-66
2023/01/14 03:33:08;;;;;;;;;4.00;3.50;;;;;7.15;76.48;101160.84;5048357;28;11416;-65
2023/01/14 03:35:38;;;;;;;;;4.00;2.00;;;;;7.11;75.96;101160.31;5047012;28;10738;-64
2023/01/14 03:38:14;;;;;;;;;2.00;2.00;;;;;7.12;75.83;101163.84;5048985;28;10851;-65
2023/01/14 03:40:43;;;;;;;;;4.75;1.00;;;;;7.09;76.33;101153.44;5048832;28;10867;-66
2023/01/14 03:43:16;;;;;;;;;0.75;0.75;;;;;7.11;76.55;101151.47;5046928;28;10795;-64
2023/01/14 03:45:45;;;;;;;;;6.00;4.00;;;;;7.08;76.45;101146.41;5049190;28;10783;-64
2023/01/14 03:48:12;;;;;;;;;4.00;2.00;;;;;7.11;76.38;101138.06;5048531;28;10825;-64
2023/01/14 03:50:57;;;;;;;;;3.50;1.00;;;;;7.13;76.73;101144.94;5045563;28;10725;-65
2023/01/14 03:53:33;;;;;;;;;2.00;1.00;;;;;7.14;76.31;101129.72;5045032;28;10640;-63
2023/01/14 03:56:14;;;;;;;;;4.00;1.75;;;;;7.10;75.96;101131.88;5046552;28;10732;-65
2023/01/14 03:59:00;;;;;;;;;11.25;4.50;;;;;6.90;77.27;101128.66;5041556;28;10723;-64
2023/01/14 04:01:41;;;;;;;;;5.00;1.75;;;;;6.90;76.99;101125.16;5045976;28;11011;-64
2023/01/14 04:04:10;;;;;;;;;6.00;2.00;;;;;6.93;77.14;101109.59;5045608;28;10896;-64
2023/01/14 04:06:36;;;;;;;;;5.00;4.00;;;;;6.99;77.00;101104.59;5044999;28;10872;-64
2023/01/14 04:09:08;;;;;;;;;3.75;2.75;;;;;6.96;76.56;101096.88;5048395;28;10861;-65
2023/01/14 04:11:35;;;;;;;;;5.50;3.00;;;;;6.99;77.51;101102.75;5046901;28;10714;-65
2023/01/14 04:16:48;;;;;;;;;6.75;4.25;;;;;6.86;76.77;101084.50;5046424;28;11606;-65
2023/01/14 04:19:14;;;;;;;;;4.25;3.00;;;;;6.87;76.36;101085.31;5049301;28;10926;-65
2023/01/14 04:21:41;;;;;;;;;4.00;4.00;;;;;6.88;76.39;101077.13;5044200;28;10823;-65
2023/01/14 04:24:07;;;;;;;;;4.25;1.75;;;;;6.90;76.96;101069.78;5046294;28;11023;-65
2023/01/14 04:26:34;;;;;;;;;5.00;2.50;;;;;6.92;76.83;101070.44;5048725;28;11027;-65
2023/01/14 04:29:00;;;;;;;;;5.75;5.25;;;;;6.92;77.04;101066.94;5046500;28;10871;-65
2023/01/14 04:31:27;;;;;;;;;2.00;2.00;;;;;6.86;77.11;101055.06;5070638;22;10831;-66
2023/01/14 04:33:53;;;;;;;;;5.25;2.25;;;;;6.88;76.92;101047.69;5037671;28;10904;-67
2023/01/14 04:36:19;;;;;;;;;4.75;3.00;;;;;6.96;77.45;101051.38;5039128;28;11028;-65
2023/01/14 04:38:46;;;;;;;;;3.00;3.00;;;;;6.97;76.58;101039.66;5040564;28;10818;-66
2023/01/14 04:42:26;;;;;;;;;4.50;4.25;;;;;6.94;76.33;101036.34;5042074;28;10907;-66
2023/01/14 04:43:59;;;;;;;;;4.00;4.00;;;;;6.99;77.26;101035.00;5020398;28;10916;-68
2023/01/14 04:46:28;;;;;;;;;3.50;2.00;;;;;7.00;76.88;101034.00;5021554;28;10750;-66
2023/01/14 04:48:54;;;;;;;;;5.00;5.00;;;;;6.92;76.79;101032.97;5022475;28;10746;-68
2023/01/14 04:51:21;;;;;;;;;8.50;5.00;;;;;6.92;75.93;101027.63;5025348;28;10919;-65
2023/01/14 04:53:47;;;;;;;;;4.75;4.00;;;;;6.92;77.19;101021.44;5020033;28;10818;-65
2023/01/14 04:56:14;;;;;;;;;2.00;2.00;;;;;6.90;76.53;101020.78;5022749;28;11083;-65
2023/01/14 04:58:40;;;;;;;;;7.00;5.75;;;;;6.89;77.70;101019.94;5025701;28;11066;-68
2023/01/14 05:01:06;;;;;;;;;3.50;3.50;;;;;6.88;77.42;101002.19;5020981;28;10785;-67
2023/01/14 05:03:33;;;;;;;;;6.25;2.25;;;;;6.84;77.15;100995.50;5022407;28;10704;-68
2023/01/14 05:05:59;;;;;;;;;4.25;4.00;;;;;6.90;77.18;100980.66;5025678;28;10893;-68
2023/01/14 05:08:26;;;;;;;;;6.50;2.00;;;;;6.94;77.64;100979.31;5023478;28;10630;-70
2023/01/14 05:10:52;;;;;;;;;11.75;4.50;;;;;6.88;76.93;100975.44;5023798;28;10807;-68
2023/01/14 05:13:19;;;;;;;;;4.00;4.00;;;;;6.81;77.35;100973.63;5020962;28;10933;-66
2023/01/14 05:15:46;;;;;;;;;4.00;2.00;;;;;6.84;78.03;100971.44;5025465;28;11595;-66
2023/01/14 05:18:14;;;;;;;;;6.25;3.50;;;;;6.80;78.44;100970.09;5024243;28;10895;-65
2023/01/14 05:20:43;;;;;;;;;9.00;6.50;;;;;6.82;77.73;100961.91;5026286;28;11104;-66
2023/01/14 05:23:13;;;;;;;;;5.25;3.25;;;;;6.81;78.00;100953.06;5024936;28;11077;-68
2023/01/14 05:25:41;;;;;;;;;10.50;5.00;;;;;6.88;78.72;100959.38;5024036;28;10909;-67
2023/01/14 05:28:11;;;;;;;;;8.75;6.00;;;;;6.85;78.18;100951.72;5024684;28;10982;-66
2023/01/14 05:30:38;;;;;;;;;11.25;4.75;;;;;6.88;78.59;100948.69;5020871;28;11139;-68
2023/01/14 05:33:04;;;;;;;;;4.00;4.00;;;;;6.87;78.38;100939.00;5023162;28;10980;-68
2023/01/14 05:35:32;;;;;;;;;4.00;3.00;;;;;6.83;78.59;100932.31;5023984;28;11031;-69
2023/01/14 05:37:59;;;;;;;;;7.75;6.50;;;;;6.89;78.84;100933.50;5022404;28;11075;-66
2023/01/14 05:40:26;;;;;;;;;7.00;4.50;;;;;6.79;78.68;100927.47;5024219;28;11128;-65
2023/01/14 05:45:48;;;;;;;;;6.75;3.25;;;;;6.74;79.32;100911.06;5020613;28;11166;-68
2023/01/14 05:48:20;;;;;;;;;11.25;5.50;;;;;6.76;79.46;100909.88;5022374;28;11122;-66
2023/01/14 05:50:50;;;;;;;;;7.00;4.00;;;;;6.84;80.05;100907.22;5019063;28;10930;-65
2023/01/14 05:53:17;;;;;;;;;10.00;9.00;;;;;6.89;79.58;100904.88;5022616;28;10985;-67
2023/01/14 05:55:44;;;;;;;;;5.50;4.00;;;;;6.84;79.50;100893.00;5021322;28;11122;-66
2023/01/14 05:58:11;;;;;;;;;8.00;5.00;;;;;6.88;79.80;100881.78;5020905;28;11048;-66
2023/01/14 06:06:25;;;;;;;;;4.00;4.00;;;;;6.69;79.82;100848.22;4992554;28;10829;-69
2023/01/14 06:08:56;;;;;;;;;4.25;3.50;;;;;6.69;80.56;100848.22;5021947;28;10963;-68
2023/01/14 06:11:24;;;;;;;;;4.75;3.50;;;;;6.69;81.31;100842.88;5023506;28;10984;-65
2023/01/14 06:13:53;;;;;;;;;5.00;2.50;;;;;6.74;81.35;100844.19;5021570;28;11785;-65
2023/01/14 06:16:20;;;;;;;;;5.25;4.00;;;;;6.66;81.59;100837.00;5026730;28;11138;-66
2023/01/14 06:18:46;;;;;;;;;4.75;4.00;;;;;6.75;81.75;100829.81;5022284;28;10888;-67
2023/01/14 06:21:19;;;;;;;;;2.00;2.00;;;;;6.78;81.04;100824.97;5022672;28;11004;-68
2023/01/14 06:23:46;;;;;;;;;2.75;2.75;;;;;6.79;82.10;100823.13;5022523;28;11712;-69
2023/01/14 06:26:19;;;;;;;;;4.75;3.50;;;;;6.75;80.88;100806.56;5026539;28;10902;-70
2023/01/14 06:28:45;;;;;;;;;3.00;2.00;;;;;6.74;81.20;100802.22;5018421;28;10902;-67
2023/01/14 06:31:15;;;;;;;;;2.50;2.50;;;;;6.65;82.19;100795.22;5024290;28;11032;-68
2023/01/14 06:33:42;;;;;;;;;9.25;5.00;;;;;6.57;82.26;100782.72;5024973;28;11177;-68
2023/01/14 06:36:09;;;;;;;;;5.25;3.25;;;;;6.53;82.36;100778.69;5020281;28;11011;-68
2023/01/14 06:38:37;;;;;;;;;2.50;1.00;;;;;6.56;82.55;100772.16;5021309;28;10908;-65
2023/01/14 06:41:05;;;;;;;;;6.50;4.00;;;;;6.57;82.03;100771.19;5019245;28;10894;-65
2023/01/14 06:43:32;;;;;;;;;5.25;5.00;;;;;6.63;82.97;100768.63;5024480;28;10968;-68
2023/01/14 06:45:59;;;;;;;;;1.50;1.50;;;;;6.67;82.60;100766.47;5024190;28;10724;-68
2023/01/14 06:48:25;;;;;;;;;2.00;2.00;;;;;6.67;82.14;100758.44;5023748;28;10749;-69
2023/01/14 06:50:52;;;;;;;;;2.00;1.00;;;;;6.65;81.94;100755.13;5017415;28;10979;-66
2023/01/14 06:53:22;;;;;;;;;5.50;2.50;;;;;6.69;82.51;100756.44;5022048;28;10855;-65
2023/01/14 06:55:49;;;;;;;;;2.25;2.25;;;;;6.71;82.20;100746.38;5020529;28;10979;-69
2023/01/14 06:58:15;;;;;;;;;0.75;0.00;;;;;6.77;82.56;100728.84;5021471;28;10790;-68
2023/01/14 07:00:42;;;;;;;;;6.25;3.25;;;;;6.73;82.31;100725.66;5022547;28;10860;-67
2023/01/14 07:03:08;;;;;;;;;1.25;1.00;;;;;6.75;82.22;100731.66;5028309;28;10728;-64
2023/01/14 07:05:35;;;;;;;;;0.75;0.50;;;;;6.77;82.44;100704.75;5021539;28;10879;-66
2023/01/14 07:08:01;;;;;;;;;1.25;0.75;;;;;6.68;82.12;100691.41;5021650;28;10889;-65
2023/01/14 07:10:28;;;;;;;;;1.00;1.00;;;;;6.72;83.26;100699.91;5021653;28;10660;-67
2023/01/14 07:12:54;;;;;;;;;3.00;2.00;;;;;6.70;82.83;100683.19;5023208;28;11549;-68
2023/01/14 07:15:21;;;;;;;;;4.00;1.00;;;;;6.72;82.57;100670.47;5020408;28;10774;-66
2023/01/14 07:17:49;;;;;;;;;4.00;1.00;;;;;6.71;82.55;100662.63;5016429;28;10888;-66
2023/01/14 07:20:16;;;;;;;;;6.50;1.25;;;;;6.68;83.39;100653.97;5023075;28;10826;-67
2023/01/14 07:22:42;;;;;;;;;4.75;4.75;;;;;6.58;83.67;100642.63;5022671;28;10866;-65
2023/01/14 07:25:09;;;;;;;;;3.00;1.50;;;;;6.59;83.94;100635.44;5022178;28;10922;-66
2023/01/14 07:27:35;;;;;;;;;2.50;1.00;;;;;6.65;83.35;100621.38;5022339;28;10705;-65
2023/01/14 07:30:03;;;;;;;;;1.00;0.00;;;;;6.67;83.38;100609.47;5021435;28;10632;-67
2023/01/14 07:32:32;;;;;;;;;1.50;1.50;;;;;6.67;83.67;100590.75;5021302;28;10605;-65
2023/01/14 07:34:58;;;;;;;;;4.00;2.00;;;;;6.66;83.55;100590.94;5021675;28;11404;-66
2023/01/14 07:37:25;;;;;;;;;2.75;2.75;;;;;6.66;83.89;100574.91;5021163;28;10883;-66
2023/01/14 07:39:51;;;;;;;;;3.50;3.50;;;;;6.61;83.77;100570.06;5020021;28;10919;-66
2023/01/14 07:42:18;;;;;;;;;1.25;1.25;;;;;6.69;84.18;100574.56;5020417;28;10833;-66
2023/01/14 07:44:46;;;;;;;;;4.00;4.00;;;;;6.61;83.60;100554.03;5036513;28;10734;-68
2023/01/14 07:47:16;;;;;;;;;4.50;4.50;;;;;6.58;84.16;100541.00;5021677;28;10927;-68
2023/01/14 07:49:42;;;;;;;;;2.50;2.50;;;;;6.57;84.31;100527.81;5024069;28;10947;-68
2023/01/14 07:52:12;;;;;;;;;2.75;1.75;;;;;6.61;84.70;100527.28;5022805;28;10894;-66
2023/01/14 07:54:42;;;;;;;;;1.00;1.00;;;;;6.70;84.79;100520.03;5019853;28;10963;-66
2023/01/14 07:57:10;;;;;;;;;2.00;2.00;;;;;6.74;84.60;100523.19;5025714;28;10901;-67
2023/01/14 07:59:38;;;;;;;;;4.00;3.00;;;;;6.71;84.59;100502.16;5021219;28;10688;-66
2023/01/14 08:02:08;;;;;;;;;4.25;4.25;;;;;6.71;84.27;100502.97;5023016;28;10753;-65
2023/01/14 08:04:35;;;;;;;;;2.00;2.00;;;;;6.56;85.34;100483.34;5022402;28;10903;-65
2023/01/14 08:07:05;;;;;;;;;3.50;3.50;;;;;6.58;85.66;100473.31;5020772;28;10938;-65
2023/01/14 08:09:31;;;;;;;;;5.00;3.00;;;;;6.57;85.42;100460.97;5020474;28;10874;-66
2023/01/14 08:11:57;;;;;;;;;2.00;2.00;;;;;6.54;85.91;100453.28;5020532;28;10991;-68
2023/01/14 08:14:24;;;;;;;;;5.50;5.00;;;;;6.50;86.26;100451.97;5017316;28;10945;-68
2023/01/14 08:16:50;;;;;;;;;4.50;2.50;;;;;6.54;86.46;100432.72;5021079;28;11690;-69
2023/01/14 08:19:18;;;;;;;;;3.50;3.50;;;;;6.59;86.71;100440.22;5021233;28;11062;-67
2023/01/14 08:21:44;;;;;;;;;7.00;5.75;;;;;6.56;86.74;100433.41;5023668;28;10977;-68
2023/01/14 08:24:11;;;;;;;;;2.00;2.00;;;;;6.58;87.03;100406.47;5022403;28;11008;-66
2023/01/14 08:26:37;;;;;;;;;3.75;3.50;;;;;6.61;86.57;100414.97;5020772;28;10932;-67
2023/01/14 08:29:04;;;;;;;;;5.50;2.00;;;;;6.62;86.97;100415.78;5024705;28;10997;-66
2023/01/14 08:31:40;;;;;;;;;8.00;2.00;;;;;6.81;88.44;100391.22;5020964;28;10961;-67
2023/01/14 08:34:07;;;;;;;;;5.50;3.00;;;;;6.81;87.18;100385.06;5020448;28;11603;-68
2023/01/14 08:36:34;;;;;;;;;2.50;2.50;;;;;6.84;87.05;100373.97;5018143;28;11588;-65
2023/01/14 08:39:00;;;;;;;;;4.75;2.50;;;;;6.77;86.64;100351.66;5020539;28;10972;-65
2023/01/14 08:41:26;;;;;;;;;3.00;3.00;;;;;6.73;86.72;100361.06;5015472;28;11544;-67
2023/01/14 08:43:54;;;;;;;;;4.25;2.50;;;;;6.73;86.57;100366.41;5038390;28;11576;-67
2023/01/14 08:46:20;;;;;;;;;5.00;4.75;;;;;6.72;87.53;100359.38;5022440;28;10877;-67
2023/01/14 08:48:47;;;;;;;;;5.25;5.25;;;;;6.76;87.04;100361.50;5022782;28;10784;-67
2023/01/14 08:51:13;;;;;;;;;5.00;4.00;;;;;6.81;87.49;100343.06;5023299;28;10994;-65
2023/01/14 08:53:40;;;;;;;;;4.75;4.75;;;;;6.86;87.49;100347.88;5018700;28;11021;-67
2023/01/14 08:56:11;;;;;;;;;3.00;2.00;;;;;6.89;86.82;100340.31;5022262;28;10896;-66
2023/01/14 08:58:38;;;;;;;;;5.00;4.00;;;;;6.89;87.07;100343.00;5019358;28;11641;-67
2023/01/14 09:01:07;;;;;;;;;7.25;4.25;;;;;6.83;86.94;100333.00;5036077;28;11075;-66
2023/01/14 09:03:35;;;;;;;;;2.00;2.00;;;;;6.81;87.49;100315.50;5027360;28;10828;-67
2023/01/14 09:06:06;;;;;;;;;11.00;5.50;;;;;6.90;88.10;100312.53;5029009;28;10777;-68
2023/01/14 09:17:04;;;;;;;;;6.50;6.50;;;;;6.85;88.66;100311.44;5028646;28;10965;-69
2023/01/14 09:17:10;;;;;;;;;8.00;5.00;;;;;6.87;88.57;100290.69;5021863;28;10975;-69
2023/01/14 09:19:47;;;;;;;;;4.25;4.25;;;;;6.92;88.66;100277.56;5027747;28;10764;-68
2023/01/14 09:22:16;;;;;;;;;6.50;4.75;;;;;6.90;88.45;100277.75;5029128;28;10874;-67
2023/01/14 09:24:43;;;;;;;;;7.00;5.00;;;;;6.89;88.60;100248.53;5029352;28;10892;-68
2023/01/14 09:27:10;;;;;;;;;5.75;5.00;;;;;6.90;89.05;100228.78;5029917;28;11748;-68
2023/01/14 09:29:36;;;;;;;;;6.00;4.50;;;;;6.94;89.35;100219.38;5029055;28;10926;-69
2023/01/14 09:32:03;;;;;;;;;7.00;7.00;;;;;6.97;89.30;100216.31;5030604;28;10818;-67
2023/01/14 09:34:29;;;;;;;;;3.00;3.00;;;;;6.99;89.70;100211.59;5023433;28;11470;-68
2023/01/14 09:36:56;;;;;;;;;4.50;4.25;;;;;7.08;89.33;100213.16;5020421;28;11518;-68
2023/01/14 09:39:22;;;;;;;;;5.00;5.00;;;;;7.08;89.73;100198.94;5022843;28;10779;-67
2023/01/14 09:41:52;;;;;;;;;5.00;5.00;;;;;7.15;89.44;100199.84;5023340;28;10807;-69
2023/01/14 09:44:20;;;;;;;;;5.75;4.00;;;;;7.19;88.76;100183.22;5018391;28;10939;-69
2023/01/14 09:46:47;;;;;;;;;5.00;5.00;;;;;7.16;88.97;100174.75;5029343;28;10958;-68
2023/01/14 09:49:16;;;;;;;;;7.25;4.75;;;;;7.18;89.25;100170.06;5019779;28;10962;-69
2023/01/14 09:51:59;;;;;;;;;4.00;4.00;;;;;7.10;89.09;100162.13;5029825;28;11144;-69
2023/01/14 09:54:37;;;;;;;;;5.00;5.00;;;;;7.04;89.47;100141.47;5033224;28;10806;-69
2023/01/14 09:57:20;;;;;;;;;8.75;7.00;;;;;7.17;89.96;100136.25;5032848;28;10806;-65
2023/01/14 10:00:05;;;;;;;;;7.50;6.25;;;;;7.26;89.78;100137.00;5032638;28;10904;-68
2023/01/14 10:02:49;;;;;;;;;5.50;5.50;;;;;7.30;89.29;100115.00;5022801;28;10874;-68
2023/01/14 10:05:22;;;;;;;;;1.00;1.00;;;;;7.36;89.99;100095.47;5012735;28;10899;-63
2023/01/14 10:07:50;;;;;;;;;4.00;4.00;;;;;7.45;89.49;100088.13;5014232;28;10722;-66
2023/01/14 10:10:31;;;;;;;;;3.00;3.00;;;;;7.37;89.70;100075.72;5030764;28;10814;-64
2023/01/14 10:13:04;;;;;;;;;3.50;3.50;;;;;7.47;90.66;100053.97;5031023;28;10675;-67
2023/01/14 10:15:44;;;;;;;;;6.00;6.00;;;;;7.46;89.39;100036.25;5028909;28;10825;-65
2023/01/14 10:18:28;;;;;;;;;5.00;5.00;;;;;7.40;89.37;100037.03;5017750;28;10749;-66
2023/01/14 10:20:58;;;;;;;;;6.50;5.00;;;;;7.37;89.85;100019.50;5013055;28;10850;-65
2023/01/14 10:23:37;;;;;;;;;6.25;5.00;;;;;7.42;90.54;100001.00;5012681;28;10801;-65
2023/01/14 10:26:14;;;;;;;;;5.50;4.50;;;;;7.51;90.21;99998.19;5016404;28;10754;-66
2023/01/14 10:28:42;;;;;;;;;4.50;4.50;;;;;7.46;90.31;99995.28;5021346;28;10586;-64
2023/01/14 10:31:17;;;;;;;;;6.25;5.00;;;;;7.43;89.92;99978.56;5025369;28;11414;-66
2023/01/14 10:33:45;;;;;;;;;5.00;5.00;;;;;7.49;90.42;99963.53;5026786;28;10634;-67
2023/01/14 10:36:18;;;;;;;;;9.50;6.00;;;;;7.52;89.88;99960.47;5030989;28;10558;-68
2023/01/14 10:38:45;;;;;;;;;4.00;3.00;;;;;7.60;90.05;99957.66;5023576;28;10685;-68
2023/01/14 10:41:13;;;;;;;;;2.50;2.50;;;;;7.63;90.53;99941.19;5012152;28;10654;-68
2023/01/14 10:43:51;;;;;;;;;2.50;2.50;;;;;7.64;90.12;99925.94;5010760;28;10606;-69
2023/01/14 10:46:20;;;;;;;;;3.00;3.00;;;;;7.57;90.17;99911.69;5026085;28;10766;-69
2023/01/14 10:49:05;;;;;;;;;5.00;2.00;;;;;7.53;90.48;99913.09;5028183;28;10663;-68
2023/01/14 10:51:37;;;;;;;;;1.75;1.75;;;;;7.55;91.13;99895.81;5027639;28;10653;-68
2023/01/14 10:54:27;;;;;;;;;2.00;2.00;;;;;7.60;91.13;99890.69;5012331;28;10597;-67
2023/01/14 10:56:58;;;;;;;;;4.00;2.00;;;;;7.69;91.67;99878.78;5006614;28;10566;-69
2023/01/14 10:59:39;;;;;;;;;4.75;3.75;;;;;7.78;90.97;99867.91;5012559;28;10605;-68
2023/01/14 11:02:36;;;;;;;;;2.00;2.00;;;;;7.76;91.06;99861.94;5023601;28;10673;-68
2023/01/14 11:05:06;;;;;;;;;1.75;1.75;;;;;7.77;90.99;99872.44;5019228;28;11240;-69
2023/01/14 11:07:40;;;;;;;;;1.75;1.25;;;;;7.74;91.34;99855.94;5011781;28;10594;-67
2023/01/14 11:10:21;;;;;;;;;5.75;3.25;;;;;7.83;91.65;99844.84;5027949;28;10578;-64
2023/01/14 11:12:48;;;;;;;;;2.00;2.00;;;;;7.86;92.62;99844.47;5038435;28;10452;-65
2023/01/14 11:15:37;;;;;;;;;2.50;2.50;;;;;7.81;92.11;99836.19;5027709;28;10571;-65
2023/01/14 11:18:19;;;;;;;;;1.25;1.25;;;;;7.99;92.75;99819.56;5017661;28;10551;-65
2023/01/14 11:21:15;;;;;;;;;1.00;1.00;;;;;8.04;92.13;99802.88;5027658;28;11208;-64
2023/01/14 11:23:54;;;;;;;;;2.00;1.00;;;;;8.03;91.86;99811.94;5011294;28;10562;-64
2023/01/14 11:26:38;;;;;;;;;2.00;2.00;;;;;8.07;92.45;99791.75;5011326;28;10586;-67
2023/01/14 11:29:25;;;;;;;;;3.25;2.00;;;;;8.07;91.98;99779.16;5019220;28;11266;-65
2023/01/14 11:32:03;;;;;;;;;1.00;1.00;;;;;8.03;92.59;99767.19;5014307;28;10674;-65
2023/01/14 11:34:46;;;;;;;;;3.50;3.50;;;;;8.08;92.28;99766.59;5011166;28;10541;-68
2023/01/14 11:37:17;;;;;;;;;2.00;2.00;;;;;8.11;92.45;99755.47;5027287;28;10473;-64
2023/01/14 11:39:53;;;;;;;;;1.00;1.00;;;;;8.15;93.47;99749.47;5026535;28;10507;-66
2023/01/14 11:42:31;;;;;;;;;1.50;1.50;;;;;8.13;92.13;99740.81;5010979;28;11318;-66
2023/01/14 11:45:18;;;;;;;;;1.00;1.00;;;;;8.14;93.17;99738.94;5025817;28;10432;-66
2023/01/14 11:47:49;;;;;;;;;1.25;1.25;;;;;8.15;94.12;99733.41;5011601;28;11284;-65
2023/01/14 11:50:26;;;;;;;;;1.25;1.25;;;;;8.31;93.81;99718.75;5027855;28;10416;-64
2023/01/14 11:53:00;;;;;;;;;1.50;1.50;;;;;8.28;93.74;99724.53;5027951;28;10322;-64
2023/01/14 11:55:29;;;;;;;;;0.00;0.00;;;;;8.30;93.61;99717.09;5022038;28;10351;-66
2023/01/14 11:58:03;;;;;;;;;0.75;0.75;;;;;8.32;93.17;99706.19;5011644;28;11054;-66
2023/01/14 12:00:41;;;;;;;;;1.25;1.25;;;;;8.33;93.80;99689.88;5028050;28;10323;-66
2023/01/14 12:03:41;;;;;;;;;0.00;0.00;;;;;8.39;93.93;99694.44;5010567;28;10416;-65
2023/01/14 12:06:20;;;;;;;;;1.00;1.00;;;;;8.40;94.47;99685.34;5008994;28;10078;-67
2023/01/14 12:08:52;;;;;;;;;0.00;0.00;;;;;8.39;94.26;99672.16;5023418;28;10145;-67
2023/01/14 12:11:26;;;;;;;;;2.75;0.50;;;;;8.46;94.40;99661.41;5021135;28;10150;-66
2023/01/14 12:16:51;;;;;;;;;1.00;1.00;;;;;8.60;94.15;99663.06;5021134;28;10143;-67